sensor_id;sensor_type;location;lat;lon;timestamp;P1;P2;P0
72307;PMS5003;60257;42.638;23.376;2023-02-22T00:00:36;35.50;32.25;21.50
72307;PMS5003;60257;42.638;23.376;2023-02-22T00:03:12;39.33;36.00;22.67
72307;PMS5003;60257;42.638;23.376;2023-02-22T00:05:40;33.33;31.67;18.33
72307;PMS5003;60257;42.638;23.376;2023-02-22T00:08:11;42.33;37.33;23.33
72307;PMS5003;60257;42.638;23.376;2023-02-22T00:10:40;39.33;32.67;20.67
72307;PMS5003;60257;42.638;23.376;2023-02-22T00:13:07;31.00;31.00;18.67
72307;PMS5003;60257;42.638;23.376;2023-02-22T00:15:34;34.67;31.67;20.33
72307;PMS5003;60257;42.638;23.376;2023-02-22T00:18:00;40.00;36.33;22.00
72307;PMS5003;60257;42.638;23.376;2023-02-22T00:20:26;34.00;28.75;17.25
72307;PMS5003;60257;42.638;23.376;2023-02-22T00:22:53;38.00;34.67;24.00
72307;PMS5003;60257;42.638;23.376;2023-02-22T00:25:19;43.25;39.25;25.00
72307;PMS5003;60257;42.638;23.376;2023-02-22T00:27:47;42.75;36.00;21.00
72307;PMS5003;60257;42.638;23.376;2023-02-22T00:30:16;45.00;37.25;23.25
72307;PMS5003;60257;42.638;23.376;2023-02-22T00:32:45;37.25;35.50;19.50
72307;PMS5003;60257;42.638;23.376;2023-02-22T00:35:15;41.25;36.50;22.50
72307;PMS5003;60257;42.638;23.376;2023-02-22T00:37:42;31.50;28.75;17.75
72307;PMS5003;60257;42.638;23.376;2023-02-22T00:40:13;25.33;24.00;15.00
72307;PMS5003;60257;42.638;23.376;2023-02-22T00:42:41;36.75;33.50;19.25
72307;PMS5003;60257;42.638;23.376;2023-02-22T00:45:06;36.00;30.75;17.00
72307;PMS5003;60257;42.638;23.376;2023-02-22T00:47:32;33.33;29.00;19.00
72307;PMS5003;60257;42.638;23.376;2023-02-22T00:49:58;31.00;26.33;16.67
72307;PMS5003;60257;42.638;23.376;2023-02-22T00:52:24;37.00;30.33;17.00
72307;PMS5003;60257;42.638;23.376;2023-02-22T00:54:52;33.67;29.67;20.00
72307;PMS5003;60257;42.638;23.376;2023-02-22T00:57:19;21.33;21.33;13.33
72307;PMS5003;60257;42.638;23.376;2023-02-22T00:59:45;26.33;23.00;14.00
72307;PMS5003;60257;42.638;23.376;2023-02-22T01:02:11;23.67;20.67;14.33
72307;PMS5003;60257;42.638;23.376;2023-02-22T01:04:37;24.00;23.00;14.67
72307;PMS5003;60257;42.638;23.376;2023-02-22T01:07:03;22.00;20.00;10.33
72307;PMS5003;60257;42.638;23.376;2023-02-22T01:09:28;25.33;22.00;13.00
72307;PMS5003;60257;42.638;23.376;2023-02-22T01:11:54;23.33;20.67;11.00
72307;PMS5003;60257;42.638;23.376;2023-02-22T01:14:21;18.33;15.33;6.00
72307;PMS5003;60257;42.638;23.376;2023-02-22T01:16:50;27.00;24.00;13.33
72307;PMS5003;60257;42.638;23.376;2023-02-22T01:19:18;21.00;20.33;10.33
72307;PMS5003;60257;42.638;23.376;2023-02-22T01:21:46;17.67;14.67;7.00
72307;PMS5003;60257;42.638;23.376;2023-02-22T01:24:12;24.67;23.67;16.00
72307;PMS5003;60257;42.638;23.376;2023-02-22T01:26:43;24.00;23.00;14.67
72307;PMS5003;60257;42.638;23.376;2023-02-22T01:29:14;20.67;20.00;12.00
72307;PMS5003;60257;42.638;23.376;2023-02-22T01:31:41;26.33;23.67;12.67
72307;PMS5003;60257;42.638;23.376;2023-02-22T01:34:10;19.33;17.33;10.00
72307;PMS5003;60257;42.638;23.376;2023-02-22T01:36:37;26.33;25.33;15.33
72307;PMS5003;60257;42.638;23.376;2023-02-22T01:39:04;26.33;24.00;15.00
72307;PMS5003;60257;42.638;23.376;2023-02-22T01:41:30;21.00;21.00;14.00
72307;PMS5003;60257;42.638;23.376;2023-02-22T01:43:56;27.00;22.33;15.67
72307;PMS5003;60257;42.638;23.376;2023-02-22T01:46:25;27.33;23.67;14.67
72307;PMS5003;60257;42.638;23.376;2023-02-22T01:48:59;25.33;23.00;15.00
72307;PMS5003;60257;42.638;23.376;2023-02-22T01:51:35;25.67;23.33;14.00
72307;PMS5003;60257;42.638;23.376;2023-02-22T01:54:04;15.67;12.00;8.33
72307;PMS5003;60257;42.638;23.376;2023-02-22T01:56:39;25.33;21.00;13.33
72307;PMS5003;60257;42.638;23.376;2023-02-22T01:59:12;24.67;22.67;14.00
72307;PMS5003;60257;42.638;23.376;2023-02-22T02:01:38;20.00;20.00;13.33
72307;PMS5003;60257;42.638;23.376;2023-02-22T02:04:09;20.67;20.67;11.33
72307;PMS5003;60257;42.638;23.376;2023-02-22T02:06:39;19.67;18.67;10.00
72307;PMS5003;60257;42.638;23.376;2023-02-22T02:09:18;17.00;14.67;9.00
72307;PMS5003;60257;42.638;23.376;2023-02-22T02:11:49;17.67;13.67;7.00
72307;PMS5003;60257;42.638;23.376;2023-02-22T02:14:15;15.67;14.33;10.00
72307;PMS5003;60257;42.638;23.376;2023-02-22T02:16:42;18.00;16.00;8.33
72307;PMS5003;60257;42.638;23.376;2023-02-22T02:19:17;16.67;11.67;6.00
72307;PMS5003;60257;42.638;23.376;2023-02-22T02:38:34;13.00;11.00;7.00
72307;PMS5003;60257;42.638;23.376;2023-02-22T02:41:15;11.67;11.67;7.00
72307;PMS5003;60257;42.638;23.376;2023-02-22T02:44:10;14.33;13.33;9.00
72307;PMS5003;60257;42.638;23.376;2023-02-22T02:46:39;13.00;11.00;7.67
72307;PMS5003;60257;42.638;23.376;2023-02-22T02:49:46;22.33;17.67;10.67
72307;PMS5003;60257;42.638;23.376;2023-02-22T02:52:15;18.00;17.33;10.00
72307;PMS5003;60257;42.638;23.376;2023-02-22T02:54:43;19.00;18.00;9.00
72307;PMS5003;60257;42.638;23.376;2023-02-22T02:57:10;11.67;11.67;8.33
72307;PMS5003;60257;42.638;23.376;2023-02-22T02:59:37;11.33;11.33;7.67
72307;PMS5003;60257;42.638;23.376;2023-02-22T03:07:50;19.33;14.00;8.33
72307;PMS5003;60257;42.638;23.376;2023-02-22T03:18:32;20.00;18.33;12.00
72307;PMS5003;60257;42.638;23.376;2023-02-22T03:23:50;18.00;18.00;12.33
72307;PMS5003;60257;42.638;23.376;2023-02-22T03:26:32;10.00;10.00;9.00
72307;PMS5003;60257;42.638;23.376;2023-02-22T03:29:03;22.00;18.00;10.00
72307;PMS5003;60257;42.638;23.376;2023-02-22T03:31:35;19.33;17.33;9.00
72307;PMS5003;60257;42.638;23.376;2023-02-22T03:34:14;14.33;14.00;7.33
72307;PMS5003;60257;42.638;23.376;2023-02-22T03:36:49;18.33;16.67;10.00
72307;PMS5003;60257;42.638;23.376;2023-02-22T03:39:21;18.00;16.67;10.00
72307;PMS5003;60257;42.638;23.376;2023-02-22T03:41:55;19.33;15.33;8.33
72307;PMS5003;60257;42.638;23.376;2023-02-22T03:44:24;18.33;13.67;6.67
72307;PMS5003;60257;42.638;23.376;2023-02-22T03:46:53;19.00;14.33;9.00
72307;PMS5003;60257;42.638;23.376;2023-02-22T03:49:32;17.67;15.00;9.33
72307;PMS5003;60257;42.638;23.376;2023-02-22T03:52:04;15.33;13.00;7.33
72307;PMS5003;60257;42.638;23.376;2023-02-22T03:54:31;22.00;22.00;10.00
72307;PMS5003;60257;42.638;23.376;2023-02-22T03:59:48;18.00;15.33;9.00
72307;PMS5003;60257;42.638;23.376;2023-02-22T04:02:14;18.67;14.00;6.67
72307;PMS5003;60257;42.638;23.376;2023-02-22T04:04:43;7.00;6.33;3.00
72307;PMS5003;60257;42.638;23.376;2023-02-22T04:07:10;18.00;17.33;10.00
72307;PMS5003;60257;42.638;23.376;2023-02-22T04:09:36;14.00;11.67;7.33
72307;PMS5003;60257;42.638;23.376;2023-02-22T04:12:01;16.67;11.67;9.00
72307;PMS5003;60257;42.638;23.376;2023-02-22T04:14:28;9.67;9.67;7.33
72307;PMS5003;60257;42.638;23.376;2023-02-22T04:16:54;18.67;13.00;8.67
72307;PMS5003;60257;42.638;23.376;2023-02-22T04:19:19;9.67;8.33;4.00
72307;PMS5003;60257;42.638;23.376;2023-02-22T04:21:45;16.00;14.00;8.00
72307;PMS5003;60257;42.638;23.376;2023-02-22T04:24:11;10.67;9.00;7.67
72307;PMS5003;60257;42.638;23.376;2023-02-22T04:26:36;16.33;14.00;10.00
72307;PMS5003;60257;42.638;23.376;2023-02-22T04:29:02;19.33;18.67;9.00
72307;PMS5003;60257;42.638;23.376;2023-02-22T04:31:28;14.67;13.00;7.00
72307;PMS5003;60257;42.638;23.376;2023-02-22T04:33:54;15.33;12.33;6.67
72307;PMS5003;60257;42.638;23.376;2023-02-22T04:36:20;14.33;13.33;7.33
72307;PMS5003;60257;42.638;23.376;2023-02-22T04:38:45;18.00;14.00;9.00
72307;PMS5003;60257;42.638;23.376;2023-02-22T04:41:11;18.33;15.67;9.33
72307;PMS5003;60257;42.638;23.376;2023-02-22T04:43:37;17.33;14.67;9.00
72307;PMS5003;60257;42.638;23.376;2023-02-22T04:46:03;14.67;14.67;9.33
72307;PMS5003;60257;42.638;23.376;2023-02-22T04:48:28;16.67;16.67;10.00
72307;PMS5003;60257;42.638;23.376;2023-02-22T04:50:54;16.33;14.33;7.00
72307;PMS5003;60257;42.638;23.376;2023-02-22T04:53:19;28.67;28.00;14.33
72307;PMS5003;60257;42.638;23.376;2023-02-22T04:55:45;15.00;15.00;9.00
72307;PMS5003;60257;42.638;23.376;2023-02-22T04:58:10;19.00;15.67;10.00
72307;PMS5003;60257;42.638;23.376;2023-02-22T05:00:36;22.00;19.50;13.00
72307;PMS5003;60257;42.638;23.376;2023-02-22T05:03:01;16.33;12.33;9.00
72307;PMS5003;60257;42.638;23.376;2023-02-22T05:05:27;17.33;14.00;12.00
72307;PMS5003;60257;42.638;23.376;2023-02-22T05:07:53;18.67;16.00;7.33
72307;PMS5003;60257;42.638;23.376;2023-02-22T05:10:18;14.33;14.00;10.00
72307;PMS5003;60257;42.638;23.376;2023-02-22T05:12:44;21.00;14.00;9.00
72307;PMS5003;60257;42.638;23.376;2023-02-22T05:15:09;18.00;18.00;9.33
72307;PMS5003;60257;42.638;23.376;2023-02-22T05:17:41;19.67;19.67;13.00
72307;PMS5003;60257;42.638;23.376;2023-02-22T05:20:06;19.33;18.00;10.00
72307;PMS5003;60257;42.638;23.376;2023-02-22T05:22:33;18.67;16.33;10.67
72307;PMS5003;60257;42.638;23.376;2023-02-22T05:25:00;16.75;14.50;8.75
72307;PMS5003;60257;42.638;23.376;2023-02-22T05:27:25;21.67;21.67;13.33
72307;PMS5003;60257;42.638;23.376;2023-02-22T05:29:51;16.67;16.67;9.33
72307;PMS5003;60257;42.638;23.376;2023-02-22T05:32:19;26.00;23.00;16.25
72307;PMS5003;60257;42.638;23.376;2023-02-22T05:34:45;23.00;21.00;14.00
72307;PMS5003;60257;42.638;23.376;2023-02-22T05:37:10;20.00;19.67;11.33
72307;PMS5003;60257;42.638;23.376;2023-02-22T05:39:36;16.00;16.00;12.00
72307;PMS5003;60257;42.638;23.376;2023-02-22T05:42:01;23.00;20.00;9.33
72307;PMS5003;60257;42.638;23.376;2023-02-22T05:44:27;14.67;14.67;9.00
72307;PMS5003;60257;42.638;23.376;2023-02-22T05:46:52;22.75;18.25;10.50
72307;PMS5003;60257;42.638;23.376;2023-02-22T05:49:17;23.50;18.00;11.50
72307;PMS5003;60257;42.638;23.376;2023-02-22T05:51:43;13.67;13.67;9.00
72307;PMS5003;60257;42.638;23.376;2023-02-22T05:54:08;17.33;16.33;10.00
72307;PMS5003;60257;42.638;23.376;2023-02-22T05:56:34;13.00;11.00;7.67
72307;PMS5003;60257;42.638;23.376;2023-02-22T05:59:00;15.33;14.33;10.00
72307;PMS5003;60257;42.638;23.376;2023-02-22T06:01:26;16.33;16.33;10.00
72307;PMS5003;60257;42.638;23.376;2023-02-22T06:03:51;19.00;16.33;10.00
72307;PMS5003;60257;42.638;23.376;2023-02-22T06:06:18;20.33;15.67;10.00
72307;PMS5003;60257;42.638;23.376;2023-02-22T06:08:44;19.67;18.33;11.00
72307;PMS5003;60257;42.638;23.376;2023-02-22T06:11:10;14.00;11.67;6.67
72307;PMS5003;60257;42.638;23.376;2023-02-22T06:13:37;16.00;14.33;7.67
72307;PMS5003;60257;42.638;23.376;2023-02-22T06:16:03;16.33;14.00;9.67
72307;PMS5003;60257;42.638;23.376;2023-02-22T06:18:28;15.00;15.00;10.33
72307;PMS5003;60257;42.638;23.376;2023-02-22T06:20:57;13.67;13.67;9.00
72307;PMS5003;60257;42.638;23.376;2023-02-22T06:23:24;16.67;16.67;11.00
72307;PMS5003;60257;42.638;23.376;2023-02-22T06:25:51;18.67;17.33;11.00
72307;PMS5003;60257;42.638;23.376;2023-02-22T06:28:16;15.33;15.00;10.33
72307;PMS5003;60257;42.638;23.376;2023-02-22T06:30:42;24.50;23.00;15.25
72307;PMS5003;60257;42.638;23.376;2023-02-22T06:33:08;32.50;30.50;19.75
72307;PMS5003;60257;42.638;23.376;2023-02-22T06:35:34;33.25;29.00;15.00
72307;PMS5003;60257;42.638;23.376;2023-02-22T06:37:59;37.00;32.00;21.50
72307;PMS5003;60257;42.638;23.376;2023-02-22T06:40:24;31.00;31.00;21.25
72307;PMS5003;60257;42.638;23.376;2023-02-22T06:42:54;44.00;38.00;25.50
72307;PMS5003;60257;42.638;23.376;2023-02-22T06:45:20;34.75;32.25;22.00
72307;PMS5003;60257;42.638;23.376;2023-02-22T06:47:46;26.00;24.00;14.00
72307;PMS5003;60257;42.638;23.376;2023-02-22T06:50:23;30.50;29.25;18.75
72307;PMS5003;60257;42.638;23.376;2023-02-22T06:52:52;38.50;33.50;21.25
72307;PMS5003;60257;42.638;23.376;2023-02-22T06:55:28;30.00;25.50;19.25
72307;PMS5003;60257;42.638;23.376;2023-02-22T06:57:56;38.00;36.75;25.00
72307;PMS5003;60257;42.638;23.376;2023-02-22T07:00:22;26.33;26.33;17.67
72307;PMS5003;60257;42.638;23.376;2023-02-22T07:02:49;35.67;31.33;21.00
72307;PMS5003;60257;42.638;23.376;2023-02-22T07:05:19;32.00;32.00;17.00
72307;PMS5003;60257;42.638;23.376;2023-02-22T07:07:46;30.00;28.33;18.00
72307;PMS5003;60257;42.638;23.376;2023-02-22T07:10:26;31.00;28.00;19.67
72307;PMS5003;60257;42.638;23.376;2023-02-22T07:12:53;31.00;27.00;16.00
72307;PMS5003;60257;42.638;23.376;2023-02-22T07:15:19;38.67;32.33;18.00
72307;PMS5003;60257;42.638;23.376;2023-02-22T07:17:46;35.33;31.00;19.67
72307;PMS5003;60257;42.638;23.376;2023-02-22T07:20:12;28.33;28.33;17.67
72307;PMS5003;60257;42.638;23.376;2023-02-22T07:22:38;37.67;32.33;21.00
72307;PMS5003;60257;42.638;23.376;2023-02-22T07:25:06;29.00;27.33;16.00
72307;PMS5003;60257;42.638;23.376;2023-02-22T07:27:36;29.67;26.33;17.00
72307;PMS5003;60257;42.638;23.376;2023-02-22T07:30:07;24.67;23.33;12.33
72307;PMS5003;60257;42.638;23.376;2023-02-22T07:32:41;31.67;28.00;18.33
72307;PMS5003;60257;42.638;23.376;2023-02-22T07:35:12;35.00;28.00;18.67
72307;PMS5003;60257;42.638;23.376;2023-02-22T07:37:42;29.33;27.00;18.67
72307;PMS5003;60257;42.638;23.376;2023-02-22T07:40:08;38.33;31.67;21.00
72307;PMS5003;60257;42.638;23.376;2023-02-22T07:42:49;34.75;31.25;21.50
72307;PMS5003;60257;42.638;23.376;2023-02-22T07:45:18;37.00;34.00;22.00
72307;PMS5003;60257;42.638;23.376;2023-02-22T07:47:45;34.00;31.67;18.67
72307;PMS5003;60257;42.638;23.376;2023-02-22T07:50:12;34.00;31.00;21.00
72307;PMS5003;60257;42.638;23.376;2023-02-22T07:52:45;43.33;36.33;24.00
72307;PMS5003;60257;42.638;23.376;2023-02-22T07:55:12;41.33;37.00;24.00
72307;PMS5003;60257;42.638;23.376;2023-02-22T07:57:42;59.25;47.25;30.25
72307;PMS5003;60257;42.638;23.376;2023-02-22T08:00:09;49.00;39.75;26.00
72307;PMS5003;60257;42.638;23.376;2023-02-22T08:02:36;58.00;49.00;30.00
72307;PMS5003;60257;42.638;23.376;2023-02-22T08:05:01;67.50;53.00;33.00
72307;PMS5003;60257;42.638;23.376;2023-02-22T08:07:26;42.25;38.25;28.00
72307;PMS5003;60257;42.638;23.376;2023-02-22T08:09:52;42.00;37.75;24.75
72307;PMS5003;60257;42.638;23.376;2023-02-22T08:12:17;42.00;39.00;22.33
72307;PMS5003;60257;42.638;23.376;2023-02-22T08:14:43;37.33;33.00;22.33
72307;PMS5003;60257;42.638;23.376;2023-02-22T08:17:08;35.33;34.00;23.33
72307;PMS5003;60257;42.638;23.376;2023-02-22T08:19:34;39.33;35.33;22.33
72307;PMS5003;60257;42.638;23.376;2023-02-22T08:21:59;37.33;34.00;23.33
72307;PMS5003;60257;42.638;23.376;2023-02-22T08:24:25;36.33;35.33;22.33
72307;PMS5003;60257;42.638;23.376;2023-02-22T08:26:50;45.33;37.00;23.67
72307;PMS5003;60257;42.638;23.376;2023-02-22T08:29:16;50.67;41.67;25.00
72307;PMS5003;60257;42.638;23.376;2023-02-22T08:31:41;44.33;36.67;23.67
72307;PMS5003;60257;42.638;23.376;2023-02-22T08:34:06;39.00;36.00;24.00
72307;PMS5003;60257;42.638;23.376;2023-02-22T08:36:32;32.67;27.67;20.33
72307;PMS5003;60257;42.638;23.376;2023-02-22T08:38:58;43.33;38.33;23.33
72307;PMS5003;60257;42.638;23.376;2023-02-22T08:41:24;52.33;43.67;26.00
72307;PMS5003;60257;42.638;23.376;2023-02-22T08:43:49;48.00;40.67;27.33
72307;PMS5003;60257;42.638;23.376;2023-02-22T08:46:15;56.00;45.00;29.33
72307;PMS5003;60257;42.638;23.376;2023-02-22T08:48:51;42.33;39.67;27.33
72307;PMS5003;60257;42.638;23.376;2023-02-22T08:51:17;55.67;46.33;28.00
72307;PMS5003;60257;42.638;23.376;2023-02-22T08:53:43;42.67;37.33;24.33
72307;PMS5003;60257;42.638;23.376;2023-02-22T08:56:08;40.33;37.67;25.00
72307;PMS5003;60257;42.638;23.376;2023-02-22T08:58:34;43.67;38.00;25.00
72307;PMS5003;60257;42.638;23.376;2023-02-22T09:01:00;37.67;36.00;26.00
72307;PMS5003;60257;42.638;23.376;2023-02-22T09:03:26;39.00;35.33;23.00
72307;PMS5003;60257;42.638;23.376;2023-02-22T09:05:52;42.67;36.00;22.33
72307;PMS5003;60257;42.638;23.376;2023-02-22T09:08:17;44.00;37.67;24.00
72307;PMS5003;60257;42.638;23.376;2023-02-22T09:10:43;26.00;20.67;8.00
72307;PMS5003;60257;42.638;23.376;2023-02-22T09:13:10;29.00;27.00;16.67
72307;PMS5003;60257;42.638;23.376;2023-02-22T09:15:35;25.00;24.00;13.67
72307;PMS5003;60257;42.638;23.376;2023-02-22T09:18:02;33.00;27.33;18.00
72307;PMS5003;60257;42.638;23.376;2023-02-22T09:20:28;18.33;17.33;9.33
72307;PMS5003;60257;42.638;23.376;2023-02-22T09:22:54;17.33;15.67;10.00
72307;PMS5003;60257;42.638;23.376;2023-02-22T09:25:20;21.67;17.00;11.00
72307;PMS5003;60257;42.638;23.376;2023-02-22T09:27:47;23.67;20.33;12.67
72307;PMS5003;60257;42.638;23.376;2023-02-22T09:30:21;23.00;19.67;12.00
72307;PMS5003;60257;42.638;23.376;2023-02-22T09:32:57;19.67;18.67;13.33
72307;PMS5003;60257;42.638;23.376;2023-02-22T09:35:25;22.00;20.00;14.00
72307;PMS5003;60257;42.638;23.376;2023-02-22T09:37:54;21.33;20.00;11.00
72307;PMS5003;60257;42.638;23.376;2023-02-22T09:40:28;25.00;23.67;14.33
72307;PMS5003;60257;42.638;23.376;2023-02-22T09:51:22;20.33;18.33;9.67
72307;PMS5003;60257;42.638;23.376;2023-02-22T09:53:52;18.67;17.00;12.00
72307;PMS5003;60257;42.638;23.376;2023-02-22T09:56:24;20.00;17.00;7.00
72307;PMS5003;60257;42.638;23.376;2023-02-22T09:58:53;15.00;15.00;8.00
72307;PMS5003;60257;42.638;23.376;2023-02-22T10:01:26;15.00;12.33;8.00
72307;PMS5003;60257;42.638;23.376;2023-02-22T10:04:03;14.00;12.67;7.33
72307;PMS5003;60257;42.638;23.376;2023-02-22T10:06:34;14.75;13.75;8.00
72307;PMS5003;60257;42.638;23.376;2023-02-22T10:09:03;9.00;9.00;4.75
72307;PMS5003;60257;42.638;23.376;2023-02-22T10:11:34;14.00;14.00;8.00
72307;PMS5003;60257;42.638;23.376;2023-02-22T10:14:21;8.50;8.50;4.25
72307;PMS5003;60257;42.638;23.376;2023-02-22T10:19:46;8.50;8.50;5.00
72307;PMS5003;60257;42.638;23.376;2023-02-22T10:27:53;15.00;14.50;7.00
72307;PMS5003;60257;42.638;23.376;2023-02-22T10:30:27;12.00;11.50;7.00
72307;PMS5003;60257;42.638;23.376;2023-02-22T10:36:02;11.25;11.00;6.00
72307;PMS5003;60257;42.638;23.376;2023-02-22T10:38:29;16.25;15.75;9.50
72307;PMS5003;60257;42.638;23.376;2023-02-22T10:43:29;13.50;11.25;6.00
72307;PMS5003;60257;42.638;23.376;2023-02-22T10:45:59;14.25;14.00;7.25
72307;PMS5003;60257;42.638;23.376;2023-02-22T10:48:28;12.50;12.50;4.75
72307;PMS5003;60257;42.638;23.376;2023-02-22T10:51:01;5.75;5.75;3.00
72307;PMS5003;60257;42.638;23.376;2023-02-22T10:53:30;8.75;8.25;5.50
72307;PMS5003;60257;42.638;23.376;2023-02-22T10:56:07;11.25;9.00;5.00
72307;PMS5003;60257;42.638;23.376;2023-02-22T10:58:43;11.00;9.50;5.50
72307;PMS5003;60257;42.638;23.376;2023-02-22T11:01:21;15.25;13.75;7.25
72307;PMS5003;60257;42.638;23.376;2023-02-22T11:06:36;9.50;8.50;5.00
72307;PMS5003;60257;42.638;23.376;2023-02-22T11:09:24;7.00;7.00;4.00
72307;PMS5003;60257;42.638;23.376;2023-02-22T11:12:05;9.00;8.25;5.00
72307;PMS5003;60257;42.638;23.376;2023-02-22T11:14:33;9.25;9.25;6.50
72307;PMS5003;60257;42.638;23.376;2023-02-22T11:16:59;9.75;9.50;6.25
72307;PMS5003;60257;42.638;23.376;2023-02-22T11:19:29;6.75;5.25;2.00
72307;PMS5003;60257;42.638;23.376;2023-02-22T11:21:58;8.50;8.50;5.00
72307;PMS5003;60257;42.638;23.376;2023-02-22T11:24:35;11.75;10.75;6.50
72307;PMS5003;60257;42.638;23.376;2023-02-22T11:27:09;8.75;8.75;5.00
72307;PMS5003;60257;42.638;23.376;2023-02-22T11:29:47;10.25;10.00;5.25
72307;PMS5003;60257;42.638;23.376;2023-02-22T11:32:17;10.00;9.00;5.50
72307;PMS5003;60257;42.638;23.376;2023-02-22T11:34:46;17.25;14.00;8.50
72307;PMS5003;60257;42.638;23.376;2023-02-22T11:37:15;24.25;23.25;12.50
72307;PMS5003;60257;42.638;23.376;2023-02-22T11:39:47;26.67;25.00;14.00
72307;PMS5003;60257;42.638;23.376;2023-02-22T11:42:28;12.50;12.50;5.00
72307;PMS5003;60257;42.638;23.376;2023-02-22T11:45:14;6.50;6.50;6.00
72307;PMS5003;60257;42.638;23.376;2023-02-22T11:50:19;11.00;11.00;7.00
72307;PMS5003;60257;42.638;23.376;2023-02-22T11:52:54;6.25;5.50;2.00
72307;PMS5003;60257;42.638;23.376;2023-02-22T11:55:46;11.50;11.50;7.00
72307;PMS5003;60257;42.638;23.376;2023-02-22T12:01:15;11.50;10.50;7.00
72307;PMS5003;60257;42.638;23.376;2023-02-22T12:04:02;9.50;9.50;6.00
72307;PMS5003;60257;42.638;23.376;2023-02-22T12:09:40;11.00;8.00;5.00
72307;PMS5003;60257;42.638;23.376;2023-02-22T12:12:21;11.25;9.00;6.00
72307;PMS5003;60257;42.638;23.376;2023-02-22T12:15:27;11.00;10.00;5.50
72307;PMS5003;60257;42.638;23.376;2023-02-22T12:18:03;11.50;10.50;7.00
72307;PMS5003;60257;42.638;23.376;2023-02-22T12:20:45;5.00;4.75;0.00
72307;PMS5003;60257;42.638;23.376;2023-02-22T12:25:56;9.25;7.75;5.00
72307;PMS5003;60257;42.638;23.376;2023-02-22T12:28:30;10.00;9.50;5.00
72307;PMS5003;60257;42.638;23.376;2023-02-22T12:31:14;7.00;6.00;3.75
72307;PMS5003;60257;42.638;23.376;2023-02-22T12:36:45;7.75;7.75;5.00
72307;PMS5003;60257;42.638;23.376;2023-02-22T12:39:26;8.50;8.50;5.75
72307;PMS5003;60257;42.638;23.376;2023-02-22T12:41:55;10.75;8.75;6.00
72307;PMS5003;60257;42.638;23.376;2023-02-22T12:44:44;10.00;10.00;7.00
72307;PMS5003;60257;42.638;23.376;2023-02-22T12:47:17;9.75;9.75;7.00
72307;PMS5003;60257;42.638;23.376;2023-02-22T12:49:51;12.00;12.00;7.00
72307;PMS5003;60257;42.638;23.376;2023-02-22T12:55:23;10.00;9.75;6.25
72307;PMS5003;60257;42.638;23.376;2023-02-22T13:00:51;11.00;9.50;5.75
72307;PMS5003;60257;42.638;23.376;2023-02-22T13:03:28;11.25;10.50;6.50
72307;PMS5003;60257;42.638;23.376;2023-02-22T13:17:02;10.00;9.00;6.00
72307;PMS5003;60257;42.638;23.376;2023-02-22T13:22:22;12.25;12.25;7.75
72307;PMS5003;60257;42.638;23.376;2023-02-22T13:25:01;7.25;6.00;5.00
72307;PMS5003;60257;42.638;23.376;2023-02-22T13:30:15;13.00;13.00;8.00
72307;PMS5003;60257;42.638;23.376;2023-02-22T13:33:07;10.00;10.00;6.75
72307;PMS5003;60257;42.638;23.376;2023-02-22T13:47:16;8.75;7.00;4.00
72307;PMS5003;60257;42.638;23.376;2023-02-22T13:50:50;7.25;6.75;5.50
72307;PMS5003;60257;42.638;23.376;2023-02-22T13:53:10;9.25;9.25;5.75
72307;PMS5003;60257;42.638;23.376;2023-02-22T13:55:40;10.00;10.00;7.00
72307;PMS5003;60257;42.638;23.376;2023-02-22T13:58:07;14.00;11.00;7.00
72307;PMS5003;60257;42.638;23.376;2023-02-22T14:16:25;12.25;10.75;7.75
72307;PMS5003;60257;42.638;23.376;2023-02-22T14:21:53;11.75;10.75;7.00
72307;PMS5003;60257;42.638;23.376;2023-02-22T14:24:19;17.75;14.75;10.75
72307;PMS5003;60257;42.638;23.376;2023-02-22T14:26:59;12.00;12.00;7.50
72307;PMS5003;60257;42.638;23.376;2023-02-22T14:29:28;9.50;9.00;5.00
72307;PMS5003;60257;42.638;23.376;2023-02-22T14:31:57;13.25;10.25;6.75
72307;PMS5003;60257;42.638;23.376;2023-02-22T14:34:39;13.00;11.75;8.00
72307;PMS5003;60257;42.638;23.376;2023-02-22T14:39:48;11.50;11.00;8.00
72307;PMS5003;60257;42.638;23.376;2023-02-22T14:42:23;7.50;7.00;5.75
72307;PMS5003;60257;42.638;23.376;2023-02-22T14:53:22;12.00;12.00;8.50
72307;PMS5003;60257;42.638;23.376;2023-02-22T14:55:54;7.50;7.25;3.50
72307;PMS5003;60257;42.638;23.376;2023-02-22T14:58:28;13.75;13.75;9.00
72307;PMS5003;60257;42.638;23.376;2023-02-22T15:01:36;14.00;13.00;8.00
72307;PMS5003;60257;42.638;23.376;2023-02-22T15:06:55;16.75;12.50;10.00
72307;PMS5003;60257;42.638;23.376;2023-02-22T15:09:31;13.00;11.75;7.00
72307;PMS5003;60257;42.638;23.376;2023-02-22T15:14:26;10.75;10.75;7.50
72307;PMS5003;60257;42.638;23.376;2023-02-22T15:16:55;14.50;13.50;8.00
72307;PMS5003;60257;42.638;23.376;2023-02-22T15:19:26;12.50;10.00;6.25
72307;PMS5003;60257;42.638;23.376;2023-02-22T15:21:55;11.00;11.00;6.25
72307;PMS5003;60257;42.638;23.376;2023-02-22T15:24:24;12.75;12.75;7.50
72307;PMS5003;60257;42.638;23.376;2023-02-22T15:26:52;16.50;16.50;10.00
72307;PMS5003;60257;42.638;23.376;2023-02-22T15:29:20;17.75;15.75;10.25
72307;PMS5003;60257;42.638;23.376;2023-02-22T15:31:53;12.25;12.25;8.00
72307;PMS5003;60257;42.638;23.376;2023-02-22T15:34:23;11.50;11.50;6.50
72307;PMS5003;60257;42.638;23.376;2023-02-22T15:36:52;17.00;16.33;10.33
72307;PMS5003;60257;42.638;23.376;2023-02-22T15:39:27;15.50;15.50;10.00
72307;PMS5003;60257;42.638;23.376;2023-02-22T15:42:27;21.33;17.33;9.00
72307;PMS5003;60257;42.638;23.376;2023-02-22T15:44:47;13.00;12.00;7.33
72307;PMS5003;60257;42.638;23.376;2023-02-22T15:58:09;20.67;20.00;11.33
72307;PMS5003;60257;42.638;23.376;2023-02-22T16:00:48;23.33;20.00;14.00
72307;PMS5003;60257;42.638;23.376;2023-02-22T16:03:22;29.67;27.67;18.00
72307;PMS5003;60257;42.638;23.376;2023-02-22T16:05:54;20.00;18.00;12.67
72307;PMS5003;60257;42.638;23.376;2023-02-22T16:08:22;23.67;22.33;14.00
72307;PMS5003;60257;42.638;23.376;2023-02-22T16:10:56;24.67;20.67;17.33
72307;PMS5003;60257;42.638;23.376;2023-02-22T16:13:26;30.00;27.67;19.00
72307;PMS5003;60257;42.638;23.376;2023-02-22T16:16:36;24.00;22.67;15.67
72307;PMS5003;60257;42.638;23.376;2023-02-22T16:18:44;30.33;27.67;17.00
72307;PMS5003;60257;42.638;23.376;2023-02-22T16:21:11;26.67;26.67;17.33
72307;PMS5003;60257;42.638;23.376;2023-02-22T16:26:31;27.67;25.00;17.67
72307;PMS5003;60257;42.638;23.376;2023-02-22T16:28:59;29.00;26.00;14.67
72307;PMS5003;60257;42.638;23.376;2023-02-22T16:31:33;30.67;27.67;17.67
72307;PMS5003;60257;42.638;23.376;2023-02-22T16:34:05;20.67;17.33;10.00
72307;PMS5003;60257;42.638;23.376;2023-02-22T16:36:37;26.33;25.00;17.33